sensor_id;sensor_type;location;lat;lon;timestamp;temperature;humidity
69009;SHT31;56065;52.472;13.380;2023-06-10T00:01:28;18.56;74.85
69009;SHT31;56065;52.472;13.380;2023-06-10T00:03:53;18.53;75.11
69009;SHT31;56065;52.472;13.380;2023-06-10T00:06:19;18.52;75.26
69009;SHT31;56065;52.472;13.380;2023-06-10T00:08:46;18.47;75.39
69009;SHT31;56065;52.472;13.380;2023-06-10T00:11:12;18.43;75.34
69009;SHT31;56065;52.472;13.380;2023-06-10T00:13:37;18.37;75.48
69009;SHT31;56065;52.472;13.380;2023-06-10T00:16:03;18.35;75.86
69009;SHT31;56065;52.472;13.380;2023-06-10T00:18:29;18.33;75.61
69009;SHT31;56065;52.472;13.380;2023-06-10T00:20:56;18.32;75.82
69009;SHT31;56065;52.472;13.380;2023-06-10T00:23:22;18.32;75.68
69009;SHT31;56065;52.472;13.380;2023-06-10T00:25:50;18.32;75.89
69009;SHT31;56065;52.472;13.380;2023-06-10T00:28:15;18.28;75.99
69009;SHT31;56065;52.472;13.380;2023-06-10T00:30:41;18.25;76.01
69009;SHT31;56065;52.472;13.380;2023-06-10T00:33:06;18.24;75.94
69009;SHT31;56065;52.472;13.380;2023-06-10T00:35:31;18.21;76.16
69009;SHT31;56065;52.472;13.380;2023-06-10T00:37:57;18.17;75.95
69009;SHT31;56065;52.472;13.380;2023-06-10T00:40:22;18.15;76.38
69009;SHT31;56065;52.472;13.380;2023-06-10T00:42:47;18.13;76.57
69009;SHT31;56065;52.472;13.380;2023-06-10T00:45:13;18.09;77.00
69009;SHT31;56065;52.472;13.380;2023-06-10T00:47:38;18.12;76.40
69009;SHT31;56065;52.472;13.380;2023-06-10T00:50:05;18.13;76.34
69009;SHT31;56065;52.472;13.380;2023-06-10T00:52:31;18.08;76.59
69009;SHT31;56065;52.472;13.380;2023-06-10T00:54:56;18.08;76.74
69009;SHT31;56065;52.472;13.380;2023-06-10T00:57:22;18.06;76.67
69009;SHT31;56065;52.472;13.380;2023-06-10T00:59:48;18.02;77.02
69009;SHT31;56065;52.472;13.380;2023-06-10T01:02:14;18.02;76.73
69009;SHT31;56065;52.472;13.380;2023-06-10T01:04:39;17.96;76.84
69009;SHT31;56065;52.472;13.380;2023-06-10T01:14:49;17.84;77.23
69009;SHT31;56065;52.472;13.380;2023-06-10T01:17:16;17.79;77.18
69009;SHT31;56065;52.472;13.380;2023-06-10T01:19:43;17.82;77.49
69009;SHT31;56065;52.472;13.380;2023-06-10T01:22:09;17.78;77.83
69009;SHT31;56065;52.472;13.380;2023-06-10T01:24:36;17.77;77.80
69009;SHT31;56065;52.472;13.380;2023-06-10T01:27:05;17.75;77.71
69009;SHT31;56065;52.472;13.380;2023-06-10T01:29:43;17.73;78.05
69009;SHT31;56065;52.472;13.380;2023-06-10T01:32:25;17.75;77.92
69009;SHT31;56065;52.472;13.380;2023-06-10T01:34:52;17.70;78.16
69009;SHT31;56065;52.472;13.380;2023-06-10T01:37:20;17.65;78.03
69009;SHT31;56065;52.472;13.380;2023-06-10T01:39:48;17.65;77.99
69009;SHT31;56065;52.472;13.380;2023-06-10T01:42:14;17.65;78.16
69009;SHT31;56065;52.472;13.380;2023-06-10T01:44:40;17.61;78.27
69009;SHT31;56065;52.472;13.380;2023-06-10T01:47:07;17.63;78.21
69009;SHT31;56065;52.472;13.380;2023-06-10T01:49:32;17.57;78.48
69009;SHT31;56065;52.472;13.380;2023-06-10T01:51:57;17.63;78.19
69009;SHT31;56065;52.472;13.380;2023-06-10T01:54:23;17.58;78.19
69009;SHT31;56065;52.472;13.380;2023-06-10T01:56:48;17.51;78.66
69009;SHT31;56065;52.472;13.380;2023-06-10T01:59:13;17.47;78.83
69009;SHT31;56065;52.472;13.380;2023-06-10T02:01:39;17.43;78.82
69009;SHT31;56065;52.472;13.380;2023-06-10T02:04:04;17.43;78.91
69009;SHT31;56065;52.472;13.380;2023-06-10T02:06:29;17.47;78.86
69009;SHT31;56065;52.472;13.380;2023-06-10T02:08:55;17.44;78.92
69009;SHT31;56065;52.472;13.380;2023-06-10T02:11:20;17.48;78.80
69009;SHT31;56065;52.472;13.380;2023-06-10T02:13:45;17.44;78.83
69009;SHT31;56065;52.472;13.380;2023-06-10T02:16:11;17.40;79.13
69009;SHT31;56065;52.472;13.380;2023-06-10T02:18:37;17.36;79.08
69009;SHT31;56065;52.472;13.380;2023-06-10T02:21:03;17.31;79.06
69009;SHT31;56065;52.472;13.380;2023-06-10T02:23:28;17.33;79.36
69009;SHT31;56065;52.472;13.380;2023-06-10T02:25:54;17.30;79.40
69009;SHT31;56065;52.472;13.380;2023-06-10T02:28:19;17.27;79.35
69009;SHT31;56065;52.472;13.380;2023-06-10T02:30:44;17.27;79.57
69009;SHT31;56065;52.472;13.380;2023-06-10T02:33:11;17.27;79.32
69009;SHT31;56065;52.472;13.380;2023-06-10T02:35:40;17.26;79.64
69009;SHT31;56065;52.472;13.380;2023-06-10T02:38:05;17.27;79.49
69009;SHT31;56065;52.472;13.380;2023-06-10T02:40:31;17.26;79.50
69009;SHT31;56065;52.472;13.380;2023-06-10T02:42:57;17.26;79.48
69009;SHT31;56065;52.472;13.380;2023-06-10T02:45:23;17.23;79.59
69009;SHT31;56065;52.472;13.380;2023-06-10T02:47:48;17.20;79.49
69009;SHT31;56065;52.472;13.380;2023-06-10T02:50:13;17.19;79.75
69009;SHT31;56065;52.472;13.380;2023-06-10T02:52:39;17.13;79.93
69009;SHT31;56065;52.472;13.380;2023-06-10T02:55:05;17.10;80.03
69009;SHT31;56065;52.472;13.380;2023-06-10T02:57:30;17.13;79.93
69009;SHT31;56065;52.472;13.380;2023-06-10T02:59:55;17.07;80.24
69009;SHT31;56065;52.472;13.380;2023-06-10T03:02:21;17.10;80.06
69009;SHT31;56065;52.472;13.380;2023-06-10T03:04:47;17.16;80.10
69009;SHT31;56065;52.472;13.380;2023-06-10T03:07:12;17.15;80.05
69009;SHT31;56065;52.472;13.380;2023-06-10T03:09:39;17.13;80.10
69009;SHT31;56065;52.472;13.380;2023-06-10T03:12:04;17.15;80.07
69009;SHT31;56065;52.472;13.380;2023-06-10T03:14:31;17.16;80.14
69009;SHT31;56065;52.472;13.380;2023-06-10T03:16:56;17.15;80.26
69009;SHT31;56065;52.472;13.380;2023-06-10T03:19:22;17.17;80.05
69009;SHT31;56065;52.472;13.380;2023-06-10T03:21:49;17.16;80.06
69009;SHT31;56065;52.472;13.380;2023-06-10T03:24:15;17.17;80.26
69009;SHT31;56065;52.472;13.380;2023-06-10T03:26:41;17.16;80.25
69009;SHT31;56065;52.472;13.380;2023-06-10T03:29:07;17.20;80.14
69009;SHT31;56065;52.472;13.380;2023-06-10T03:31:32;17.22;80.19
69009;SHT31;56065;52.472;13.380;2023-06-10T03:33:57;17.22;80.14
69009;SHT31;56065;52.472;13.380;2023-06-10T03:36:23;17.27;80.05
69009;SHT31;56065;52.472;13.380;2023-06-10T03:38:49;17.23;79.99
69009;SHT31;56065;52.472;13.380;2023-06-10T03:41:17;17.24;80.18
69009;SHT31;56065;52.472;13.380;2023-06-10T03:43:42;17.30;80.04
69009;SHT31;56065;52.472;13.380;2023-06-10T03:46:09;17.30;80.14
69009;SHT31;56065;52.472;13.380;2023-06-10T03:48:35;17.30;80.07
69009;SHT31;56065;52.472;13.380;2023-06-10T03:51:01;17.28;80.09
69009;SHT31;56065;52.472;13.380;2023-06-10T03:53:26;17.31;80.08
69009;SHT31;56065;52.472;13.380;2023-06-10T03:55:52;17.33;80.14
69009;SHT31;56065;52.472;13.380;2023-06-10T03:58:17;17.41;79.87
69009;SHT31;56065;52.472;13.380;2023-06-10T04:00:43;17.44;79.82
69009;SHT31;56065;52.472;13.380;2023-06-10T04:03:09;17.50;79.76
69009;SHT31;56065;52.472;13.380;2023-06-10T04:05:34;17.57;79.68
69009;SHT31;56065;52.472;13.380;2023-06-10T04:08:00;17.58;79.67
69009;SHT31;56065;52.472;13.380;2023-06-10T04:10:26;17.61;79.51
69009;SHT31;56065;52.472;13.380;2023-06-10T04:12:52;17.61;79.51
69009;SHT31;56065;52.472;13.380;2023-06-10T04:15:17;17.61;79.34
69009;SHT31;56065;52.472;13.380;2023-06-10T04:17:43;17.64;79.23
69009;SHT31;56065;52.472;13.380;2023-06-10T04:20:08;17.68;79.27
69009;SHT31;56065;52.472;13.380;2023-06-10T04:22:35;17.70;79.17
69009;SHT31;56065;52.472;13.380;2023-06-10T04:25:01;17.77;79.04
69009;SHT31;56065;52.472;13.380;2023-06-10T04:27:27;17.79;78.83
69009;SHT31;56065;52.472;13.380;2023-06-10T04:29:52;17.84;78.96
69009;SHT31;56065;52.472;13.380;2023-06-10T04:32:18;17.85;78.81
69009;SHT31;56065;52.472;13.380;2023-06-10T04:34:43;17.82;78.88
69009;SHT31;56065;52.472;13.380;2023-06-10T04:37:09;17.92;78.56
69009;SHT31;56065;52.472;13.380;2023-06-10T04:39:34;17.92;78.61
69009;SHT31;56065;52.472;13.380;2023-06-10T04:41:59;17.95;78.39
69009;SHT31;56065;52.472;13.380;2023-06-10T04:44:25;17.95;78.41
69009;SHT31;56065;52.472;13.380;2023-06-10T04:46:51;17.95;78.42
69009;SHT31;56065;52.472;13.380;2023-06-10T04:49:16;17.96;78.46
69009;SHT31;56065;52.472;13.380;2023-06-10T04:51:41;17.92;78.41
69009;SHT31;56065;52.472;13.380;2023-06-10T04:54:07;17.95;78.39
69009;SHT31;56065;52.472;13.380;2023-06-10T04:56:32;17.95;78.25
69009;SHT31;56065;52.472;13.380;2023-06-10T04:58:58;17.96;78.32
69009;SHT31;56065;52.472;13.380;2023-06-10T05:01:24;17.98;78.33
69009;SHT31;56065;52.472;13.380;2023-06-10T05:03:50;18.04;78.30
69009;SHT31;56065;52.472;13.380;2023-06-10T05:06:15;18.15;78.25
69009;SHT31;56065;52.472;13.380;2023-06-10T05:08:40;18.17;78.15
69009;SHT31;56065;52.472;13.380;2023-06-10T05:11:06;18.29;77.96
69009;SHT31;56065;52.472;13.380;2023-06-10T05:13:32;18.37;77.77
69009;SHT31;56065;52.472;13.380;2023-06-10T05:15:57;18.52;77.69
69009;SHT31;56065;52.472;13.380;2023-06-10T05:18:23;18.57;77.48
69009;SHT31;56065;52.472;13.380;2023-06-10T05:20:48;18.70;77.43
69009;SHT31;56065;52.472;13.380;2023-06-10T05:23:14;18.83;76.92
69009;SHT31;56065;52.472;13.380;2023-06-10T05:25:39;18.94;76.62
69009;SHT31;56065;52.472;13.380;2023-06-10T05:28:05;19.11;76.37
69009;SHT31;56065;52.472;13.380;2023-06-10T05:30:34;19.31;76.10
69009;SHT31;56065;52.472;13.380;2023-06-10T05:33:00;19.48;75.66
69009;SHT31;56065;52.472;13.380;2023-06-10T05:35:25;19.72;75.31
69009;SHT31;56065;52.472;13.380;2023-06-10T05:37:50;20.04;74.98
69009;SHT31;56065;52.472;13.380;2023-06-10T05:40:16;20.43;74.28
69009;SHT31;56065;52.472;13.380;2023-06-10T05:42:41;20.79;73.26
69009;SHT31;56065;52.472;13.380;2023-06-10T05:45:07;21.20;72.67
69009;SHT31;56065;52.472;13.380;2023-06-10T05:47:32;21.42;71.59
69009;SHT31;56065;52.472;13.380;2023-06-10T05:49:58;21.76;71.12
69009;SHT31;56065;52.472;13.380;2023-06-10T05:52:23;21.94;70.78
69009;SHT31;56065;52.472;13.380;2023-06-10T05:54:49;22.00;70.38
69009;SHT31;56065;52.472;13.380;2023-06-10T05:57:15;22.12;69.68
69009;SHT31;56065;52.472;13.380;2023-06-10T05:59:40;22.21;69.63
69009;SHT31;56065;52.472;13.380;2023-06-10T06:02:06;22.25;69.35
69009;SHT31;56065;52.472;13.380;2023-06-10T06:04:31;22.26;69.22
69009;SHT31;56065;52.472;13.380;2023-06-10T06:06:57;22.28;69.07
69009;SHT31;56065;52.472;13.380;2023-06-10T06:09:22;22.39;69.22
69009;SHT31;56065;52.472;13.380;2023-06-10T06:11:48;22.49;69.18
69009;SHT31;56065;52.472;13.380;2023-06-10T06:14:13;22.65;69.09
69009;SHT31;56065;52.472;13.380;2023-06-10T06:16:38;22.77;68.45
69009;SHT31;56065;52.472;13.380;2023-06-10T06:19:04;23.03;68.17
69009;SHT31;56065;52.472;13.380;2023-06-10T06:21:29;23.45;67.86
69009;SHT31;56065;52.472;13.380;2023-06-10T06:23:55;23.99;66.69
69009;SHT31;56065;52.472;13.380;2023-06-10T06:26:20;24.25;65.83
69009;SHT31;56065;52.472;13.380;2023-06-10T06:28:46;24.29;65.66
69009;SHT31;56065;52.472;13.380;2023-06-10T06:31:11;24.20;65.47
69009;SHT31;56065;52.472;13.380;2023-06-10T06:33:36;24.29;65.23
69009;SHT31;56065;52.472;13.380;2023-06-10T06:36:02;24.33;65.21
69009;SHT31;56065;52.472;13.380;2023-06-10T06:38:27;24.61;64.98
69009;SHT31;56065;52.472;13.380;2023-06-10T06:40:53;24.71;64.24
69009;SHT31;56065;52.472;13.380;2023-06-10T06:43:19;24.71;64.04
69009;SHT31;56065;52.472;13.380;2023-06-10T06:45:44;24.73;63.87
69009;SHT31;56065;52.472;13.380;2023-06-10T06:48:13;24.50;63.48
69009;SHT31;56065;52.472;13.380;2023-06-10T06:50:38;24.39;63.81
69009;SHT31;56065;52.472;13.380;2023-06-10T06:53:04;24.36;63.97
69009;SHT31;56065;52.472;13.380;2023-06-10T06:55:29;24.41;63.69
69009;SHT31;56065;52.472;13.380;2023-06-10T06:57:55;24.56;63.74
69009;SHT31;56065;52.472;13.380;2023-06-10T07:00:21;24.61;63.92
69009;SHT31;56065;52.472;13.380;2023-06-10T07:02:46;25.67;62.70
69009;SHT31;56065;52.472;13.380;2023-06-10T07:05:12;26.59;60.81
69009;SHT31;56065;52.472;13.380;2023-06-10T07:07:37;27.19;59.84
69009;SHT31;56065;52.472;13.380;2023-06-10T07:10:03;27.71;58.18
69009;SHT31;56065;52.472;13.380;2023-06-10T07:12:28;28.76;56.85
69009;SHT31;56065;52.472;13.380;2023-06-10T07:14:54;29.71;53.80
69009;SHT31;56065;52.472;13.380;2023-06-10T07:17:19;30.34;53.56
69009;SHT31;56065;52.472;13.380;2023-06-10T07:19:45;30.81;52.67
69009;SHT31;56065;52.472;13.380;2023-06-10T07:22:11;31.41;51.91
69009;SHT31;56065;52.472;13.380;2023-06-10T07:24:36;32.33;51.07
69009;SHT31;56065;52.472;13.380;2023-06-10T07:27:01;32.57;49.34
69009;SHT31;56065;52.472;13.380;2023-06-10T07:29:27;33.11;49.27
69009;SHT31;56065;52.472;13.380;2023-06-10T07:31:52;33.67;47.85
69009;SHT31;56065;52.472;13.380;2023-06-10T07:34:18;34.24;47.32
69009;SHT31;56065;52.472;13.380;2023-06-10T07:36:43;34.59;46.12
69009;SHT31;56065;52.472;13.380;2023-06-10T07:39:09;35.12;45.20
69009;SHT31;56065;52.472;13.380;2023-06-10T07:41:35;35.23;44.97
69009;SHT31;56065;52.472;13.380;2023-06-10T07:44:00;35.33;44.84
69009;SHT31;56065;52.472;13.380;2023-06-10T07:46:26;34.27;46.02
69009;SHT31;56065;52.472;13.380;2023-06-10T07:48:53;33.32;46.14
69009;SHT31;56065;52.472;13.380;2023-06-10T07:51:18;32.71;47.55
69009;SHT31;56065;52.472;13.380;2023-06-10T07:53:44;32.43;48.11
69009;SHT31;56065;52.472;13.380;2023-06-10T07:56:09;31.79;48.84
69009;SHT31;56065;52.472;13.380;2023-06-10T07:58:35;31.07;49.51
69009;SHT31;56065;52.472;13.380;2023-06-10T08:01:00;30.60;50.25
69009;SHT31;56065;52.472;13.380;2023-06-10T08:03:25;31.83;49.85
69009;SHT31;56065;52.472;13.380;2023-06-10T08:05:51;32.81;48.44
69009;SHT31;56065;52.472;13.380;2023-06-10T08:08:16;33.42;47.23
69009;SHT31;56065;52.472;13.380;2023-06-10T08:10:41;33.69;46.68
69009;SHT31;56065;52.472;13.380;2023-06-10T08:13:08;33.39;46.03
69009;SHT31;56065;52.472;13.380;2023-06-10T08:15:33;32.55;47.32
69009;SHT31;56065;52.472;13.380;2023-06-10T08:17:59;32.54;48.63
69009;SHT31;56065;52.472;13.380;2023-06-10T08:20:24;33.06;47.81
69009;SHT31;56065;52.472;13.380;2023-06-10T08:22:50;34.40;46.94
69009;SHT31;56065;52.472;13.380;2023-06-10T08:25:15;36.11;44.86
69009;SHT31;56065;52.472;13.380;2023-06-10T08:27:41;37.42;42.78
69009;SHT31;56065;52.472;13.380;2023-06-10T08:30:07;38.27;41.73
69009;SHT31;56065;52.472;13.380;2023-06-10T08:32:33;37.35;41.91
69009;SHT31;56065;52.472;13.380;2023-06-10T08:34:58;37.20;41.91
69009;SHT31;56065;52.472;13.380;2023-06-10T08:37:24;37.26;42.13
69009;SHT31;56065;52.472;13.380;2023-06-10T08:39:49;36.80;42.15
69009;SHT31;56065;52.472;13.380;2023-06-10T08:44:46;35.90;43.20
69009;SHT31;56065;52.472;13.380;2023-06-10T08:47:15;35.73;43.08
69009;SHT31;56065;52.472;13.380;2023-06-10T08:49:45;36.11;43.37
69009;SHT31;56065;52.472;13.380;2023-06-10T08:52:17;35.97;43.26
69009;SHT31;56065;52.472;13.380;2023-06-10T08:54:52;35.80;43.27
69009;SHT31;56065;52.472;13.380;2023-06-10T08:57:20;36.46;43.16
69009;SHT31;56065;52.472;13.380;2023-06-10T08:59:47;36.53;42.59
69009;SHT31;56065;52.472;13.380;2023-06-10T09:02:13;37.42;41.84
69009;SHT31;56065;52.472;13.380;2023-06-10T09:04:39;38.67;40.97
69009;SHT31;56065;52.472;13.380;2023-06-10T09:07:05;39.18;40.14
69009;SHT31;56065;52.472;13.380;2023-06-10T09:09:32;39.52;38.67
69009;SHT31;56065;52.472;13.380;2023-06-10T09:11:58;39.13;38.80
69009;SHT31;56065;52.472;13.380;2023-06-10T09:14:25;38.57;38.91
69009;SHT31;56065;52.472;13.380;2023-06-10T09:16:51;38.68;39.48
69009;SHT31;56065;52.472;13.380;2023-06-10T09:19:16;39.76;39.32
69009;SHT31;56065;52.472;13.380;2023-06-10T09:21:42;39.35;39.14
69009;SHT31;56065;52.472;13.380;2023-06-10T09:24:07;39.92;39.15
69009;SHT31;56065;52.472;13.380;2023-06-10T09:26:33;40.34;38.43
69009;SHT31;56065;52.472;13.380;2023-06-10T09:29:06;40.15;38.20
69009;SHT31;56065;52.472;13.380;2023-06-10T09:31:35;39.17;38.77
69009;SHT31;56065;52.472;13.380;2023-06-10T09:34:13;38.41;40.20
69009;SHT31;56065;52.472;13.380;2023-06-10T09:36:39;38.15;40.66
69009;SHT31;56065;52.472;13.380;2023-06-10T09:39:06;38.04;40.17
69009;SHT31;56065;52.472;13.380;2023-06-10T09:41:40;37.18;40.27
69009;SHT31;56065;52.472;13.380;2023-06-10T09:44:15;36.68;41.24
69009;SHT31;56065;52.472;13.380;2023-06-10T09:46:41;36.18;42.24
69009;SHT31;56065;52.472;13.380;2023-06-10T09:49:07;35.58;43.06
69009;SHT31;56065;52.472;13.380;2023-06-10T09:51:32;35.43;43.39
69009;SHT31;56065;52.472;13.380;2023-06-10T09:53:58;35.26;43.57
69009;SHT31;56065;52.472;13.380;2023-06-10T09:56:36;34.96;44.09
69009;SHT31;56065;52.472;13.380;2023-06-10T09:59:03;34.72;44.11
69009;SHT31;56065;52.472;13.380;2023-06-10T10:01:30;34.28;44.77
69009;SHT31;56065;52.472;13.380;2023-06-10T10:03:55;33.54;45.10
69009;SHT31;56065;52.472;13.380;2023-06-10T10:06:21;32.99;45.64
69009;SHT31;56065;52.472;13.380;2023-06-10T10:08:50;32.94;46.13
69009;SHT31;56065;52.472;13.380;2023-06-10T10:11:20;32.86;46.12
69009;SHT31;56065;52.472;13.380;2023-06-10T10:13:50;32.95;45.80
69009;SHT31;56065;52.472;13.380;2023-06-10T10:16:21;32.71;45.80
69009;SHT31;56065;52.472;13.380;2023-06-10T10:19:03;32.60;46.09
69009;SHT31;56065;52.472;13.380;2023-06-10T10:21:34;32.37;46.72
69009;SHT31;56065;52.472;13.380;2023-06-10T10:24:16;32.20;46.26
69009;SHT31;56065;52.472;13.380;2023-06-10T10:26:43;31.89;46.64
69009;SHT31;56065;52.472;13.380;2023-06-10T10:29:16;31.59;46.84
69009;SHT31;56065;52.472;13.380;2023-06-10T10:31:44;31.55;46.96
69009;SHT31;56065;52.472;13.380;2023-06-10T10:34:16;31.35;47.25
69009;SHT31;56065;52.472;13.380;2023-06-10T10:36:44;31.11;47.91
69009;SHT31;56065;52.472;13.380;2023-06-10T10:39:09;31.21;47.03
69009;SHT31;56065;52.472;13.380;2023-06-10T10:41:36;31.18;47.11
69009;SHT31;56065;52.472;13.380;2023-06-10T10:44:02;31.18;46.64
69009;SHT31;56065;52.472;13.380;2023-06-10T10:46:30;31.32;46.52
69009;SHT31;56065;52.472;13.380;2023-06-10T10:48:56;31.45;46.13
69009;SHT31;56065;52.472;13.380;2023-06-10T10:51:23;31.61;45.09
69009;SHT31;56065;52.472;13.380;2023-06-10T10:54:14;32.84;43.29
69009;SHT31;56065;52.472;13.380;2023-06-10T10:56:39;33.93;41.99
69009;SHT31;56065;52.472;13.380;2023-06-10T10:59:25;34.17;41.23
69009;SHT31;56065;52.472;13.380;2023-06-10T11:01:50;34.65;40.69
69009;SHT31;56065;52.472;13.380;2023-06-10T11:04:18;35.57;39.92
69009;SHT31;56065;52.472;13.380;2023-06-10T11:06:52;36.35;39.05
69009;SHT31;56065;52.472;13.380;2023-06-10T11:09:28;36.29;38.81
69009;SHT31;56065;52.472;13.380;2023-06-10T11:11:56;36.56;38.63
69009;SHT31;56065;52.472;13.380;2023-06-10T11:14:27;36.82;38.47
69009;SHT31;56065;52.472;13.380;2023-06-10T11:16:56;36.79;38.07
69009;SHT31;56065;52.472;13.380;2023-06-10T11:19:32;37.16;37.69
69009;SHT31;56065;52.472;13.380;2023-06-10T11:21:59;37.20;37.62
69009;SHT31;56065;52.472;13.380;2023-06-10T11:24:25;36.83;37.52
69009;SHT31;56065;52.472;13.380;2023-06-10T11:26:51;36.77;37.68
69009;SHT31;56065;52.472;13.380;2023-06-10T11:29:16;37.88;37.12
69009;SHT31;56065;52.472;13.380;2023-06-10T11:31:49;39.39;36.79
69009;SHT31;56065;52.472;13.380;2023-06-10T11:34:15;40.73;35.59
69009;SHT31;56065;52.472;13.380;2023-06-10T11:36:45;41.46;34.60
69009;SHT31;56065;52.472;13.380;2023-06-10T11:39:12;41.84;34.02
69009;SHT31;56065;52.472;13.380;2023-06-10T11:41:38;42.08;33.47
69009;SHT31;56065;52.472;13.380;2023-06-10T11:44:08;41.92;33.13
69009;SHT31;56065;52.472;13.380;2023-06-10T11:46:35;42.20;33.37
69009;SHT31;56065;52.472;13.380;2023-06-10T11:49:01;42.79;33.53
69009;SHT31;56065;52.472;13.380;2023-06-10T11:51:37;43.02;32.42
69009;SHT31;56065;52.472;13.380;2023-06-10T11:54:03;43.09;32.65
69009;SHT31;56065;52.472;13.380;2023-06-10T11:56:30;42.82;32.40
69009;SHT31;56065;52.472;13.380;2023-06-10T12:01:24;42.96;33.27
69009;SHT31;56065;52.472;13.380;2023-06-10T12:04:01;42.78;32.90
69009;SHT31;56065;52.472;13.380;2023-06-10T12:06:27;42.80;32.75
69009;SHT31;56065;52.472;13.380;2023-06-10T12:09:02;42.25;32.83
69009;SHT31;56065;52.472;13.380;2023-06-10T12:11:27;42.03;33.79
69009;SHT31;56065;52.472;13.380;2023-06-10T12:13:53;41.69;33.49
69009;SHT31;56065;52.472;13.380;2023-06-10T12:16:18;41.77;34.15
69009;SHT31;56065;52.472;13.380;2023-06-10T12:18:44;41.69;35.36
69009;SHT31;56065;52.472;13.380;2023-06-10T12:21:23;41.29;34.50
69009;SHT31;56065;52.472;13.380;2023-06-10T12:24:09;41.39;34.75
69009;SHT31;56065;52.472;13.380;2023-06-10T12:26:41;41.28;33.89
69009;SHT31;56065;52.472;13.380;2023-06-10T12:29:33;41.31;33.70
69009;SHT31;56065;52.472;13.380;2023-06-10T12:32:02;41.57;33.45
69009;SHT31;56065;52.472;13.380;2023-06-10T12:34:36;41.77;33.38
69009;SHT31;56065;52.472;13.380;2023-06-10T12:37:04;42.16;34.14
69009;SHT31;56065;52.472;13.380;2023-06-10T12:39:32;42.01;33.66
69009;SHT31;56065;52.472;13.380;2023-06-10T12:41:57;41.86;34.42
69009;SHT31;56065;52.472;13.380;2023-06-10T12:44:33;41.52;34.05
69009;SHT31;56065;52.472;13.380;2023-06-10T12:47:00;41.82;34.62
69009;SHT31;56065;52.472;13.380;2023-06-10T12:49:25;41.87;34.89
69009;SHT31;56065;52.472;13.380;2023-06-10T12:51:51;41.96;34.45
69009;SHT31;56065;52.472;13.380;2023-06-10T12:54:17;42.21;34.40
69009;SHT31;56065;52.472;13.380;2023-06-10T12:56:42;42.03;34.61
69009;SHT31;56065;52.472;13.380;2023-06-10T12:59:08;42.05;34.60
69009;SHT31;56065;52.472;13.380;2023-06-10T13:01:33;41.72;34.93
69009;SHT31;56065;52.472;13.380;2023-06-10T13:03:59;41.52;35.11
69009;SHT31;56065;52.472;13.380;2023-06-10T13:06:25;41.59;35.43
69009;SHT31;56065;52.472;13.380;2023-06-10T13:08:50;41.46;35.37
69009;SHT31;56065;52.472;13.380;2023-06-10T13:11:17;41.39;35.76
69009;SHT31;56065;52.472;13.380;2023-06-10T13:13:42;41.11;35.32
69009;SHT31;56065;52.472;13.380;2023-06-10T13:16:08;41.05;35.52
69009;SHT31;56065;52.472;13.380;2023-06-10T13:18:33;41.35;35.87
69009;SHT31;56065;52.472;13.380;2023-06-10T13:21:03;41.39;35.68
69009;SHT31;56065;52.472;13.380;2023-06-10T13:23:28;41.72;35.63
69009;SHT31;56065;52.472;13.380;2023-06-10T13:25:54;41.63;35.67
69009;SHT31;56065;52.472;13.380;2023-06-10T13:28:20;41.74;35.48
69009;SHT31;56065;52.472;13.380;2023-06-10T13:30:46;41.38;35.12
69009;SHT31;56065;52.472;13.380;2023-06-10T13:33:11;40.99;35.33
69009;SHT31;56065;52.472;13.380;2023-06-10T13:35:37;41.12;35.75
69009;SHT31;56065;52.472;13.380;2023-06-10T13:38:02;41.18;36.05
69009;SHT31;56065;52.472;13.380;2023-06-10T13:40:27;40.58;36.32
69009;SHT31;56065;52.472;13.380;2023-06-10T13:42:53;39.96;36.92
69009;SHT31;56065;52.472;13.380;2023-06-10T13:45:19;39.69;37.56
69009;SHT31;56065;52.472;13.380;2023-06-10T13:47:45;39.48;37.33
69009;SHT31;56065;52.472;13.380;2023-06-10T13:50:10;38.35;37.51
69009;SHT31;56065;52.472;13.380;2023-06-10T13:52:36;37.58;37.95
69009;SHT31;56065;52.472;13.380;2023-06-10T13:55:01;36.53;39.40
69009;SHT31;56065;52.472;13.380;2023-06-10T13:57:27;35.55;40.87
69009;SHT31;56065;52.472;13.380;2023-06-10T13:59:52;35.00;41.92
69009;SHT31;56065;52.472;13.380;2023-06-10T14:02:17;35.33;41.82
69009;SHT31;56065;52.472;13.380;2023-06-10T14:04:43;35.14;42.31
69009;SHT31;56065;52.472;13.380;2023-06-10T14:07:08;34.88;42.54
69009;SHT31;56065;52.472;13.380;2023-06-10T14:09:33;34.21;43.13
69009;SHT31;56065;52.472;13.380;2023-06-10T14:11:59;33.66;43.64
69009;SHT31;56065;52.472;13.380;2023-06-10T14:14:24;33.12;44.71
69009;SHT31;56065;52.472;13.380;2023-06-10T14:16:49;32.70;45.34
69009;SHT31;56065;52.472;13.380;2023-06-10T14:19:15;32.37;45.26
69009;SHT31;56065;52.472;13.380;2023-06-10T14:21:40;32.07;45.51
69009;SHT31;56065;52.472;13.380;2023-06-10T14:24:06;31.94;45.90
69009;SHT31;56065;52.472;13.380;2023-06-10T14:26:31;31.80;45.84
69009;SHT31;56065;52.472;13.380;2023-06-10T14:28:58;31.84;44.95
69009;SHT31;56065;52.472;13.380;2023-06-10T14:31:23;32.44;44.70
69009;SHT31;56065;52.472;13.380;2023-06-10T14:33:48;33.09;43.65
69009;SHT31;56065;52.472;13.380;2023-06-10T14:36:14;33.59;43.31
69009;SHT31;56065;52.472;13.380;2023-06-10T14:38:39;34.02;42.16
69009;SHT31;56065;52.472;13.380;2023-06-10T14:41:05;34.45;42.14
69009;SHT31;56065;52.472;13.380;2023-06-10T14:43:30;34.66;42.00
69009;SHT31;56065;52.472;13.380;2023-06-10T14:45:55;34.82;41.19
69009;SHT31;56065;52.472;13.380;2023-06-10T14:48:22;35.03;40.83
69009;SHT31;56065;52.472;13.380;2023-06-10T14:50:47;35.07;40.40
69009;SHT31;56065;52.472;13.380;2023-06-10T14:53:19;35.14;40.54
69009;SHT31;56065;52.472;13.380;2023-06-10T14:55:44;35.27;40.02
69009;SHT31;56065;52.472;13.380;2023-06-10T14:58:10;34.99;39.71
69009;SHT31;56065;52.472;13.380;2023-06-10T15:00:35;34.69;39.37
69009;SHT31;56065;52.472;13.380;2023-06-10T15:03:00;34.22;40.13
69009;SHT31;56065;52.472;13.380;2023-06-10T15:05:26;34.01;40.68
69009;SHT31;56065;52.472;13.380;2023-06-10T15:07:51;34.12;40.38
69009;SHT31;56065;52.472;13.380;2023-06-10T15:10:16;34.20;40.49
69009;SHT31;56065;52.472;13.380;2023-06-10T15:12:43;33.91;39.94
69009;SHT31;56065;52.472;13.380;2023-06-10T15:15:08;33.74;40.52
69009;SHT31;56065;52.472;13.380;2023-06-10T15:17:33;33.77;41.38
69009;SHT31;56065;52.472;13.380;2023-06-10T15:19:59;33.80;40.27
69009;SHT31;56065;52.472;13.380;2023-06-10T15:22:24;33.59;41.11
69009;SHT31;56065;52.472;13.380;2023-06-10T15:24:50;33.63;41.45